createdAt,value
2022-08-07T00:02:35.609Z,79.62
2022-08-07T00:04:15.416Z,78.20
2022-08-07T00:06:51.776Z,78.20
2022-08-07T00:09:22.831Z,79.91
2022-08-07T00:11:55.877Z,80.88
2022-08-07T00:14:30.972Z,80.98
2022-08-07T00:17:00.110Z,80.34
2022-08-07T00:19:56.048Z,81.54
2022-08-07T00:22:34.474Z,81.65
2022-08-07T00:25:07.436Z,82.57
2022-08-07T00:27:53.346Z,81.19
2022-08-07T00:30:27.258Z,79.51
2022-08-07T00:32:57.699Z,79.48
2022-08-07T00:35:26.505Z,80.24
2022-08-07T00:37:53.950Z,80.27
2022-08-07T00:40:36.575Z,79.95
2022-08-07T00:43:09.715Z,78.37
2022-08-07T00:45:41.585Z,78.61
2022-08-07T00:48:14.100Z,79.86
2022-08-07T00:50:51.384Z,81.15
2022-08-07T00:53:20.633Z,82.03
2022-08-07T00:56:02.313Z,81.01
2022-08-07T00:58:32.732Z,79.03
2022-08-07T01:01:00.115Z,78.79
2022-08-07T01:03:56.980Z,79.46
2022-08-07T01:06:15.918Z,80.71
2022-08-07T01:08:52.968Z,82.23
2022-08-07T01:12:24.005Z,81.95
2022-08-07T01:14:09.457Z,79.71
2022-08-07T01:16:37.176Z,79.56
2022-08-07T01:19:10.932Z,80.13
2022-08-07T01:21:49.704Z,81.96
2022-08-07T01:24:22.285Z,82.81
2022-08-07T01:26:52.083Z,83.48
2022-08-07T01:29:27.810Z,82.74
2022-08-07T01:31:59.689Z,84.89
2022-08-07T01:34:32.945Z,84.77
2022-08-07T01:37:09.761Z,84.56
2022-08-07T01:39:46.450Z,83.31
2022-08-07T01:42:39.906Z,82.39
2022-08-07T01:45:22.776Z,86.09
2022-08-07T01:48:20.040Z,85.01
2022-08-07T01:50:51.063Z,83.00
2022-08-07T01:54:09.065Z,82.05
2022-08-07T01:56:15.273Z,82.52
2022-08-07T01:58:49.491Z,83.77
2022-08-07T02:01:25.388Z,82.74
2022-08-07T02:04:11.024Z,81.18
2022-08-07T02:06:40.634Z,81.96
2022-08-07T02:09:11.669Z,82.85
2022-08-07T02:12:02.942Z,84.74
2022-08-07T02:14:41.064Z,82.94
2022-08-07T02:17:16.556Z,81.63
2022-08-07T02:20:06.577Z,81.93
2022-08-07T02:22:41.075Z,83.85
2022-08-07T02:25:13.970Z,85.73
2022-08-07T02:27:52.258Z,83.17
2022-08-07T02:30:21.145Z,82.59
2022-08-07T02:33:07.282Z,83.72
2022-08-07T02:36:29.723Z,83.93
2022-08-07T02:38:31.771Z,82.38
2022-08-07T02:41:01.417Z,80.47
2022-08-07T02:43:32.496Z,80.46
2022-08-07T02:46:02.126Z,81.04
2022-08-07T02:48:31.195Z,82.31
2022-08-07T02:51:00.289Z,81.38
2022-08-07T02:53:38.522Z,79.87
2022-08-07T02:56:13.139Z,79.83
2022-08-07T02:58:48.401Z,80.80
2022-08-07T03:01:19.168Z,81.60
2022-08-07T03:04:03.408Z,81.12
2022-08-07T03:06:35.414Z,80.11
2022-08-07T03:09:07.789Z,81.49
2022-08-07T03:11:51.522Z,82.70
2022-08-07T03:14:22.548Z,82.30
2022-08-07T03:16:50.537Z,81.24
2022-08-07T03:19:20.449Z,80.99
2022-08-07T03:21:50.740Z,81.08
2022-08-07T03:24:25.977Z,81.36
2022-08-07T03:26:59.598Z,82.17
2022-08-07T03:29:36.786Z,81.55
2022-08-07T03:32:08.510Z,82.41
2022-08-07T03:34:47.503Z,82.74
2022-08-07T03:38:07.476Z,84.15
2022-08-07T03:40:38.640Z,82.57
2022-08-07T03:43:14.763Z,83.21
2022-08-07T03:45:48.999Z,84.45
2022-08-07T03:48:22.082Z,83.31
2022-08-07T03:50:56.302Z,83.59
2022-08-07T03:54:33.079Z,83.78
2022-08-07T03:56:32.712Z,81.62
2022-08-07T03:59:08.385Z,81.56
2022-08-07T04:01:45.164Z,81.42
2022-08-07T04:04:17.255Z,82.10
2022-08-07T04:06:50.949Z,80.69
2022-08-07T04:09:23.241Z,78.44
2022-08-07T04:12:25.414Z,78.38
2022-08-07T04:14:43.815Z,79.41
2022-08-07T04:17:20.761Z,81.58
2022-08-07T04:20:10.218Z,79.41
2022-08-07T04:22:40.150Z,78.55
2022-08-07T04:25:23.554Z,78.49
2022-08-07T04:27:59.137Z,79.87
2022-08-07T04:30:35.581Z,80.98
2022-08-07T04:33:16.557Z,79.50
2022-08-07T04:35:54.001Z,79.21
2022-08-07T04:38:24.881Z,81.13
2022-08-07T04:40:56.778Z,81.43
2022-08-07T04:44:10.285Z,80.80
2022-08-07T04:47:04.221Z,79.37
2022-08-07T04:49:57.425Z,78.71
2022-08-07T04:52:58.792Z,79.43
2022-08-07T04:58:07.975Z,79.90
2022-08-07T04:58:34.830Z,80.59
2022-08-07T05:01:30.767Z,79.18
2022-08-07T05:04:18.261Z,78.79
2022-08-07T05:06:59.168Z,79.95
2022-08-07T05:09:46.767Z,80.95
2022-08-07T05:12:27.228Z,82.26
2022-08-07T05:15:26.467Z,81.34
2022-08-07T05:18:21.636Z,80.94
2022-08-07T05:20:54.681Z,81.12
2022-08-07T05:23:30.017Z,82.03
2022-08-07T05:26:13.470Z,82.69
2022-08-07T05:28:50.379Z,80.48
2022-08-07T05:31:20.232Z,78.53
2022-08-07T05:34:01.181Z,78.77
2022-08-07T05:36:35.428Z,79.88
2022-08-07T05:40:05.034Z,80.73
2022-08-07T05:42:02.686Z,81.80
2022-08-07T05:44:36.596Z,80.33
2022-08-07T05:47:18.616Z,79.08
2022-08-07T05:50:03.358Z,79.81
2022-08-07T05:52:32.892Z,80.93
2022-08-07T05:55:10.352Z,81.27
2022-08-07T05:57:42.312Z,80.52
2022-08-07T06:00:16.121Z,79.78
2022-08-07T06:02:51.772Z,80.00
2022-08-07T06:05:28.171Z,81.11
2022-08-07T06:08:29.589Z,82.95
2022-08-07T06:10:51.248Z,82.04
2022-08-07T06:14:12.114Z,80.90
2022-08-07T06:16:10.057Z,81.31
2022-08-07T06:18:38.573Z,81.77
2022-08-07T06:22:15.070Z,82.64
2022-08-07T06:24:52.316Z,81.02
2022-08-07T06:26:43.575Z,79.72
2022-08-07T06:29:11.717Z,80.74
2022-08-07T06:31:49.621Z,81.44
2022-08-07T06:34:20.536Z,81.78
2022-08-07T06:36:52.021Z,81.36
2022-08-07T06:40:15.858Z,79.95
2022-08-07T06:42:19.214Z,80.27
2022-08-07T06:45:05.696Z,80.80
2022-08-07T06:47:48.414Z,82.05
2022-08-07T06:50:27.938Z,79.23
2022-08-07T06:52:58.305Z,78.27
2022-08-07T06:56:00.032Z,78.40
2022-08-07T06:58:17.380Z,80.26
2022-08-07T07:00:56.265Z,80.08
2022-08-07T07:03:39.603Z,79.84
2022-08-07T07:06:14.731Z,77.82
2022-08-07T07:08:53.657Z,76.20
2022-08-07T07:12:08.693Z,75.49
2022-08-07T07:14:09.831Z,75.54
2022-08-07T07:16:50.080Z,75.97
2022-08-07T07:19:57.069Z,76.42
2022-08-07T07:22:32.196Z,74.48
2022-08-07T07:25:02.871Z,73.02
2022-08-07T07:28:07.644Z,73.83
2022-08-07T07:31:05.077Z,74.20
2022-08-07T07:33:35.704Z,75.38
2022-08-07T07:36:13.287Z,75.47
2022-08-07T07:38:43.521Z,73.38
2022-08-07T07:41:13.434Z,72.50
2022-08-07T07:44:13.828Z,71.66
2022-08-07T07:46:49.981Z,72.15
2022-08-07T07:50:34.814Z,71.53
2022-08-07T07:52:12.370Z,71.10
2022-08-07T07:54:50.650Z,71.59
2022-08-07T07:57:43.719Z,72.27
2022-08-07T08:00:12.040Z,70.88
2022-08-07T08:03:05.188Z,68.77
2022-08-07T08:05:50.931Z,67.66
2022-08-07T08:08:34.395Z,67.78
2022-08-07T08:11:05.549Z,68.30
2022-08-07T08:13:54.521Z,69.15
2022-08-07T08:16:32.925Z,69.88
2022-08-07T08:19:17.550Z,70.10
2022-08-07T08:22:09.851Z,70.80
2022-08-07T08:25:15.903Z,71.56
2022-08-07T08:27:56.968Z,70.89
2022-08-07T08:30:29.140Z,69.99
2022-08-07T08:32:58.430Z,69.31
2022-08-07T08:35:28.919Z,69.91
2022-08-07T08:38:06.819Z,71.01
2022-08-07T08:40:43.840Z,72.04
2022-08-07T08:43:21.217Z,73.42
2022-08-07T08:46:08.842Z,74.57
2022-08-07T08:48:41.029Z,74.51
2022-08-07T08:52:01.046Z,72.56
2022-08-07T08:54:29.619Z,71.98
2022-08-07T08:56:58.388Z,72.40
2022-08-07T08:59:50.735Z,72.72
2022-08-07T09:02:39.552Z,74.01
2022-08-07T09:05:37.487Z,74.42
2022-08-07T09:08:46.872Z,75.08
2022-08-07T09:11:24.972Z,73.19
2022-08-07T09:14:40.862Z,72.95
2022-08-07T09:17:59.011Z,73.22
2022-08-07T09:20:30.762Z,74.78
2022-08-07T09:24:31.520Z,75.65
2022-08-07T09:26:13.764Z,76.06
2022-08-07T09:30:05.875Z,75.01
2022-08-07T09:31:50.130Z,74.31
2022-08-07T09:34:31.515Z,74.37
2022-08-07T09:37:14.536Z,76.24
2022-08-07T09:39:53.669Z,77.55
2022-08-07T09:42:50.393Z,78.17
2022-08-07T09:47:24.425Z,75.76
2022-08-07T09:49:59.547Z,74.62
2022-08-07T09:52:15.631Z,74.94
2022-08-07T09:54:54.697Z,76.80
2022-08-07T09:57:46.797Z,78.01
2022-08-07T10:00:15.817Z,78.09
2022-08-07T10:02:55.106Z,76.54
2022-08-07T10:05:58.890Z,76.43
2022-08-07T10:08:58.476Z,76.55
2022-08-07T10:12:03.396Z,76.74
2022-08-07T10:14:39.466Z,78.22
2022-08-07T10:18:02.558Z,76.27
2022-08-07T10:20:53.482Z,75.77
2022-08-07T10:24:04.906Z,77.19
2022-08-07T10:26:41.698Z,79.40
2022-08-07T10:29:23.943Z,80.18
2022-08-07T10:31:57.831Z,78.83
2022-08-07T10:34:54.348Z,78.06
2022-08-07T10:38:21.177Z,79.25
2022-08-07T10:40:45.036Z,80.67
2022-08-07T10:43:19.522Z,81.01
2022-08-07T10:46:07.492Z,78.95
2022-08-07T10:48:48.504Z,77.84
2022-08-07T10:51:39.654Z,77.66
2022-08-07T10:54:53.134Z,79.59
2022-08-07T10:57:34.371Z,79.80
2022-08-07T11:00:36.236Z,77.93
2022-08-07T11:03:00.660Z,78.58
2022-08-07T11:05:50.573Z,78.11
2022-08-07T11:08:39.000Z,78.51
2022-08-07T11:11:22.439Z,79.03
2022-08-07T11:14:43.663Z,79.38
2022-08-07T11:16:54.798Z,78.06
2022-08-07T11:19:45.336Z,78.74
2022-08-07T11:22:37.023Z,79.34
2022-08-07T11:25:36.287Z,80.18
2022-08-07T11:28:29.114Z,80.41
2022-08-07T11:31:13.273Z,78.80
2022-08-07T11:34:24.554Z,78.20
2022-08-07T11:37:15.296Z,79.01
2022-08-07T11:40:00.609Z,79.96
2022-08-07T11:42:57.999Z,78.75
2022-08-07T11:45:50.182Z,78.05
2022-08-07T11:49:28.617Z,78.65
2022-08-07T11:52:09.625Z,80.24
2022-08-07T11:54:54.517Z,81.14
2022-08-07T11:58:00.293Z,78.87
2022-08-07T12:00:28.441Z,78.35
2022-08-07T12:03:45.341Z,78.57
2022-08-07T12:06:51.796Z,79.31
2022-08-07T12:09:29.195Z,79.21
2022-08-07T12:12:11.669Z,79.47
2022-08-07T12:15:00.571Z,78.70
2022-08-07T12:17:38.032Z,78.99
2022-08-07T12:20:20.805Z,80.00
2022-08-07T12:24:05.940Z,78.29
2022-08-07T12:26:49.154Z,77.81
2022-08-07T12:29:51.510Z,78.10
2022-08-07T12:32:21.235Z,79.39
2022-08-07T12:34:55.801Z,79.89
2022-08-07T12:37:28.336Z,77.75
2022-08-07T12:40:30.016Z,76.40
2022-08-07T12:43:02.929Z,75.88
2022-08-07T12:45:39.984Z,76.50
2022-08-07T12:48:27.644Z,76.66
2022-08-07T12:51:12.903Z,77.34
2022-08-07T12:54:36.505Z,75.25
2022-08-07T12:57:09.797Z,73.69
2022-08-07T12:59:54.444Z,73.91
2022-08-07T13:02:47.173Z,75.01
2022-08-07T13:06:17.074Z,76.12
2022-08-07T13:08:54.308Z,76.23
2022-08-07T13:12:03.252Z,73.59
2022-08-07T13:15:11.315Z,73.14
2022-08-07T13:17:52.699Z,74.05
2022-08-07T13:20:51.116Z,77.09
2022-08-07T13:24:01.163Z,76.63
2022-08-07T13:26:46.552Z,76.75
2022-08-07T13:29:16.887Z,75.10
2022-08-07T13:32:31.900Z,74.48
2022-08-07T13:35:09.234Z,77.66
2022-08-07T13:37:58.621Z,76.58
2022-08-07T13:40:42.802Z,76.75
2022-08-07T13:43:15.049Z,76.96
2022-08-07T13:46:11.831Z,75.08
2022-08-07T13:48:33.895Z,74.59
2022-08-07T13:51:21.221Z,74.76
2022-08-07T13:54:00.579Z,76.51
2022-08-07T13:56:35.297Z,77.96
2022-08-07T13:59:13.014Z,77.79
2022-08-07T14:02:08.254Z,75.98
2022-08-07T14:04:54.361Z,75.16
2022-08-07T14:07:24.517Z,74.96
2022-08-07T14:10:02.489Z,75.30
2022-08-07T14:12:58.300Z,76.13
2022-08-07T14:15:40.699Z,78.67
2022-08-07T14:18:30.920Z,78.44
2022-08-07T14:22:01.809Z,78.01
2022-08-07T14:24:28.093Z,78.01
2022-08-07T14:27:00.223Z,80.46
2022-08-07T14:30:07.854Z,81.05
2022-08-07T14:32:21.871Z,79.30
2022-08-07T14:34:52.730Z,80.55
2022-08-07T14:37:36.484Z,81.17
2022-08-07T14:40:17.343Z,82.12
2022-08-07T14:45:54.671Z,79.27
2022-08-07T14:48:27.382Z,79.29
2022-08-07T14:51:00.910Z,80.34
2022-08-07T14:54:06.596Z,79.82
2022-08-07T14:56:29.797Z,77.29
2022-08-07T14:59:13.861Z,77.04
2022-08-07T15:01:53.821Z,78.11
2022-08-07T15:04:29.044Z,79.27
2022-08-07T15:06:56.817Z,79.45
2022-08-07T15:12:42.164Z,75.63
2022-08-07T15:13:03.530Z,78.64
2022-08-07T15:18:02.707Z,77.45
2022-08-07T15:20:55.291Z,78.48
2022-08-07T15:25:15.979Z,78.34
2022-08-07T15:26:22.610Z,78.27
2022-08-07T15:30:03.561Z,79.49
2022-08-07T15:31:57.679Z,81.15
2022-08-07T15:37:14.067Z,79.12
2022-08-07T15:39:58.321Z,77.83
2022-08-07T15:42:43.541Z,79.09
2022-08-07T15:45:58.108Z,80.16
2022-08-07T15:51:10.058Z,77.75
2022-08-07T15:53:52.317Z,76.82
2022-08-07T15:56:38.007Z,77.08
2022-08-07T15:59:16.322Z,78.27
2022-08-07T16:02:01.938Z,77.75
2022-08-07T16:04:32.104Z,78.54
2022-08-07T16:07:00.724Z,78.96
2022-08-07T16:09:42.080Z,79.51
2022-08-07T16:12:28.616Z,79.71
2022-08-07T16:15:55.386Z,78.93
2022-08-07T16:18:49.930Z,78.77
2022-08-07T16:22:02.425Z,79.24
2022-08-07T16:24:35.634Z,78.46
2022-08-07T16:27:18.097Z,75.77
2022-08-07T16:30:31.084Z,77.04
2022-08-07T16:34:01.954Z,79.63
2022-08-07T16:36:31.455Z,79.68
2022-08-07T16:39:49.489Z,79.59
2022-08-07T16:42:55.220Z,78.74
2022-08-07T16:46:40.691Z,80.16
2022-08-07T16:49:10.607Z,80.79
2022-08-07T16:51:54.111Z,78.26
2022-08-07T16:54:22.817Z,79.60
2022-08-07T16:57:15.967Z,79.35
2022-08-07T17:00:15.061Z,79.45
2022-08-07T17:02:52.351Z,78.17
2022-08-07T17:06:02.088Z,78.50
2022-08-07T17:09:04.184Z,78.46
2022-08-07T17:12:04.498Z,80.24
2022-08-07T17:14:54.417Z,79.90
2022-08-07T17:17:47.629Z,79.07
2022-08-07T17:20:33.256Z,79.31
2022-08-07T17:23:17.304Z,80.29
2022-08-07T17:26:23.233Z,80.05
2022-08-07T17:29:04.668Z,79.16
2022-08-07T17:31:33.571Z,78.56
2022-08-07T17:34:36.754Z,78.83
2022-08-07T17:38:05.853Z,80.05
2022-08-07T17:40:30.158Z,79.54
2022-08-07T17:43:03.362Z,78.30
2022-08-07T17:46:11.528Z,78.39
2022-08-07T17:49:23.046Z,78.86
2022-08-07T17:52:19.465Z,79.56
2022-08-07T17:54:54.349Z,78.36
2022-08-07T17:57:56.319Z,76.45
2022-08-07T18:00:33.003Z,76.68
2022-08-07T18:04:03.838Z,76.85
2022-08-07T18:06:43.523Z,77.94
2022-08-07T18:09:16.421Z,78.73
2022-08-07T18:12:19.885Z,76.69
2022-08-07T18:15:02.349Z,74.76
2022-08-07T18:18:44.715Z,74.74
2022-08-07T18:21:10.230Z,75.66
2022-08-07T18:23:46.725Z,76.50
2022-08-07T18:26:23.881Z,77.78
2022-08-07T18:29:03.319Z,76.62
2022-08-07T18:31:49.805Z,74.57
2022-08-07T18:34:53.279Z,74.40
2022-08-07T18:38:57.072Z,75.19
2022-08-07T18:41:16.596Z,76.41
2022-08-07T18:43:50.818Z,77.53
2022-08-07T18:46:29.236Z,75.74
2022-08-07T18:50:30.304Z,74.91
2022-08-07T18:52:33.816Z,76.22
2022-08-07T18:55:40.242Z,77.73
2022-08-07T18:57:58.730Z,78.06
2022-08-07T19:01:09.477Z,79.20
2022-08-07T19:04:09.372Z,76.80
2022-08-07T19:06:51.369Z,75.49
2022-08-07T19:09:56.258Z,75.96
2022-08-07T19:12:26.449Z,77.01
2022-08-07T19:16:05.025Z,78.25
2022-08-07T19:18:45.048Z,76.81
2022-08-07T19:21:47.574Z,75.90
2022-08-07T19:24:30.868Z,76.62
2022-08-07T19:28:29.453Z,77.70
2022-08-07T19:30:57.906Z,78.85
2022-08-07T19:32:46.053Z,77.41
2022-08-07T19:35:19.084Z,76.37
2022-08-07T19:37:57.503Z,76.53
2022-08-07T19:40:31.600Z,77.14
2022-08-07T19:43:21.547Z,78.13
2022-08-07T19:46:04.733Z,78.99
2022-08-07T19:48:42.967Z,77.31
2022-08-07T19:51:20.493Z,75.40
2022-08-07T19:54:33.817Z,75.41
2022-08-07T19:57:59.654Z,76.48
2022-08-07T19:59:40.508Z,77.60
2022-08-07T20:02:19.840Z,78.20
2022-08-07T20:04:50.082Z,77.44
2022-08-07T20:07:23.888Z,75.45
2022-08-07T20:10:38.387Z,74.88
2022-08-07T20:12:46.409Z,75.18
2022-08-07T20:15:22.030Z,75.57
2022-08-07T20:18:01.295Z,76.17
2022-08-07T20:20:32.537Z,77.06
2022-08-07T20:23:10.888Z,76.38
2022-08-07T20:25:53.168Z,74.34
2022-08-07T20:28:20.828Z,74.11
2022-08-07T20:30:57.181Z,74.73
2022-08-07T20:33:38.005Z,75.60
2022-08-07T20:36:06.853Z,76.23
2022-08-07T20:38:34.815Z,76.94
2022-08-07T20:41:03.902Z,76.98
2022-08-07T20:43:33.819Z,75.69
2022-08-07T20:46:26.517Z,75.35
2022-08-07T20:49:54.677Z,75.56
2022-08-07T20:51:40.586Z,76.25
2022-08-07T20:54:29.296Z,77.03
2022-08-07T20:57:04.018Z,76.74
2022-08-07T21:00:08.144Z,75.01
2022-08-07T21:02:54.467Z,74.48
2022-08-07T21:05:54.441Z,74.75
2022-08-07T21:08:38.332Z,75.86
2022-08-07T21:11:10.521Z,77.01
2022-08-07T21:13:58.009Z,76.32
2022-08-07T21:16:46.787Z,74.33
2022-08-07T21:19:32.153Z,74.69
2022-08-07T21:22:19.250Z,75.40
2022-08-07T21:25:12.066Z,76.33
2022-08-07T21:27:46.865Z,77.21
2022-08-07T21:30:16.631Z,78.90
2022-08-07T21:32:54.532Z,78.60
2022-08-07T21:36:03.857Z,77.03
2022-08-07T21:38:44.564Z,76.37
2022-08-07T21:41:19.369Z,76.37
2022-08-07T21:43:56.532Z,77.28
2022-08-07T21:46:49.199Z,78.97
2022-08-07T21:49:25.632Z,78.63
2022-08-07T21:52:11.651Z,76.78
2022-08-07T21:55:01.951Z,76.02
2022-08-07T21:57:52.108Z,76.64
2022-08-07T22:00:25.123Z,78.56
2022-08-07T22:03:30.678Z,79.66
2022-08-07T22:06:36.741Z,78.84
2022-08-07T22:09:13.519Z,77.43
2022-08-07T22:11:52.930Z,77.60
2022-08-07T22:14:23.866Z,78.68
2022-08-07T22:17:02.307Z,79.89
2022-08-07T22:19:37.554Z,80.84
2022-08-07T22:22:28.901Z,80.29
2022-08-07T22:25:08.720Z,78.44
2022-08-07T22:28:07.831Z,77.91
2022-08-07T22:30:54.725Z,78.71
2022-08-07T22:33:52.584Z,79.54
2022-08-07T22:36:42.405Z,80.35
2022-08-07T22:39:30.331Z,78.97
2022-08-07T22:42:29.543Z,77.25
2022-08-07T22:45:04.016Z,77.31
2022-08-07T22:48:01.596Z,77.25
2022-08-07T22:50:53.732Z,78.14
2022-08-07T22:54:07.354Z,80.04
2022-08-07T22:57:15.081Z,79.11
2022-08-07T22:59:59.836Z,76.44
2022-08-07T23:02:50.111Z,76.44
2022-08-07T23:06:09.556Z,77.93
2022-08-07T23:10:05.191Z,80.02
2022-08-07T23:11:59.576Z,82.37
2022-08-07T23:14:36.796Z,83.10
2022-08-07T23:17:20.108Z,81.43
2022-08-07T23:20:51.710Z,79.11
2022-08-07T23:24:05.357Z,78.68
2022-08-07T23:26:23.450Z,78.94
2022-08-07T23:28:56.764Z,79.91
2022-08-07T23:34:24.135Z,80.67
2022-08-07T23:35:16.676Z,79.99
2022-08-07T23:38:01.517Z,78.40
2022-08-07T23:40:55.096Z,78.59
2022-08-07T23:43:42.623Z,79.44
2022-08-07T23:46:30.041Z,80.67
2022-08-07T23:49:15.799Z,83.23
2022-08-07T23:53:00.394Z,81.95
2022-08-07T23:54:51.985Z,79.64
2022-08-07T23:57:28.900Z,78.72
